sensor_id;sensor_type;location;lat;lon;timestamp;pressure;altitude;pressure_sealevel;temperature;humidity
11302;BME280;5706;50.650;13.380;2022-08-03T04:52:07;56246.72;;;-140.63;75.62
11302;BME280;5706;50.650;13.380;2022-08-03T04:54:40;56300.41;;;-140.63;76.20
11302;BME280;5706;50.650;13.380;2022-08-03T04:57:09;56222.84;;;-140.63;76.22
11302;BME280;5706;50.650;13.380;2022-08-03T04:59:36;56270.56;;;-140.63;76.32
11302;BME280;5706;50.650;13.380;2022-08-03T05:02:04;56254.66;;;-140.63;76.60
11302;BME280;5706;50.650;13.380;2022-08-03T05:04:32;56266.59;;;-140.63;76.22
11302;BME280;5706;50.650;13.380;2022-08-03T05:07:00;56238.75;;;-140.63;76.28
11302;BME280;5706;50.650;13.380;2022-08-03T05:09:30;56288.47;;;-140.63;75.06
11302;BME280;5706;50.650;13.380;2022-08-03T05:11:57;56262.63;;;-140.63;75.42
11302;BME280;5706;50.650;13.380;2022-08-03T05:14:25;56266.59;;;-140.63;75.62
11302;BME280;5706;50.650;13.380;2022-08-03T05:16:53;56256.66;;;-140.63;75.88
11302;BME280;5706;50.650;13.380;2022-08-03T05:19:20;56258.63;;;-140.63;76.28
11302;BME280;5706;50.650;13.380;2022-08-03T05:21:48;56256.66;;;-140.63;76.18
11302;BME280;5706;50.650;13.380;2022-08-03T05:24:16;56266.59;;;-140.63;75.35
11302;BME280;5706;50.650;13.380;2022-08-03T05:26:45;56254.66;;;-140.63;75.67
11302;BME280;5706;50.650;13.380;2022-08-03T05:29:12;56254.66;;;-140.63;75.54
11302;BME280;5706;50.650;13.380;2022-08-03T05:31:40;56260.63;;;-140.63;75.61
11302;BME280;5706;50.650;13.380;2022-08-03T05:34:08;56240.75;;;-140.63;74.50
11302;BME280;5706;50.650;13.380;2022-08-03T05:36:35;56228.81;;;-140.63;74.49
11302;BME280;5706;50.650;13.380;2022-08-03T05:39:04;56260.63;;;-140.63;73.60
11302;BME280;5706;50.650;13.380;2022-08-03T05:41:31;56244.72;;;-140.63;73.79
11302;BME280;5706;50.650;13.380;2022-08-03T05:44:00;56266.59;;;-140.63;73.76
11302;BME280;5706;50.650;13.380;2022-08-03T05:46:29;56230.81;;;-140.63;73.93
11302;BME280;5706;50.650;13.380;2022-08-03T05:48:56;56274.56;;;-140.63;73.68
11302;BME280;5706;50.650;13.380;2022-08-03T05:51:24;56234.78;;;-140.63;73.63
11302;BME280;5706;50.650;13.380;2022-08-03T05:53:53;56240.75;;;-140.63;73.43
11302;BME280;5706;50.650;13.380;2022-08-03T05:56:21;56228.81;;;-140.63;73.30
11302;BME280;5706;50.650;13.380;2022-08-03T05:58:50;56238.75;;;-140.63;73.34
11302;BME280;5706;50.650;13.380;2022-08-03T06:01:20;56214.91;;;-140.63;72.47
11302;BME280;5706;50.650;13.380;2022-08-03T06:03:48;56240.75;;;-140.63;72.53
11302;BME280;5706;50.650;13.380;2022-08-03T06:06:17;56212.91;;;-140.63;72.20
11302;BME280;5706;50.650;13.380;2022-08-03T06:08:45;56218.88;;;-140.63;70.70
11302;BME280;5706;50.650;13.380;2022-08-03T06:11:13;56226.84;;;-140.63;70.24
11302;BME280;5706;50.650;13.380;2022-08-03T06:13:41;56206.94;;;-140.63;69.79
11302;BME280;5706;50.650;13.380;2022-08-03T06:16:10;56210.94;;;-140.63;69.58
11302;BME280;5706;50.650;13.380;2022-08-03T06:18:39;56197.00;;;-140.63;67.96
11302;BME280;5706;50.650;13.380;2022-08-03T06:21:06;56218.88;;;-140.63;67.32
11302;BME280;5706;50.650;13.380;2022-08-03T06:23:34;56187.06;;;-140.63;66.90
11302;BME280;5706;50.650;13.380;2022-08-03T06:26:02;56218.88;;;-140.63;65.77
11302;BME280;5706;50.650;13.380;2022-08-03T06:28:30;56228.81;;;-140.63;64.66
11302;BME280;5706;50.650;13.380;2022-08-03T06:30:57;56200.97;;;-140.63;64.83
11302;BME280;5706;50.650;13.380;2022-08-03T06:33:25;56199.00;;;-140.63;63.72
11302;BME280;5706;50.650;13.380;2022-08-03T06:35:54;56181.09;;;-140.63;63.59
11302;BME280;5706;50.650;13.380;2022-08-03T06:38:22;56200.97;;;-140.63;63.00
11302;BME280;5706;50.650;13.380;2022-08-03T06:40:50;56193.03;;;-140.63;62.41
11302;BME280;5706;50.650;13.380;2022-08-03T06:43:17;56200.97;;;-140.63;61.01
11302;BME280;5706;50.650;13.380;2022-08-03T06:45:45;56191.03;;;-140.63;60.36
11302;BME280;5706;50.650;13.380;2022-08-03T06:48:13;56181.09;;;-140.63;59.08
11302;BME280;5706;50.650;13.380;2022-08-03T06:50:41;56179.13;;;-140.63;58.76
11302;BME280;5706;50.650;13.380;2022-08-03T06:53:10;56141.34;;;-140.63;57.13
11302;BME280;5706;50.650;13.380;2022-08-03T07:02:34;56157.25;;;-140.63;54.79
11302;BME280;5706;50.650;13.380;2022-08-03T07:06:03;56137.38;;;-140.63;53.03
11302;BME280;5706;50.650;13.380;2022-08-03T07:08:39;56153.28;;;-140.63;52.99
11302;BME280;5706;50.650;13.380;2022-08-03T07:11:08;56139.34;;;-140.63;51.86
11302;BME280;5706;50.650;13.380;2022-08-03T07:13:58;56127.41;;;-140.63;51.79
11302;BME280;5706;50.650;13.380;2022-08-03T07:16:46;56139.34;;;-140.63;50.39
11302;BME280;5706;50.650;13.380;2022-08-03T09:50:04;55964.41;;;-140.63;28.08
11302;BME280;5706;50.650;13.380;2022-08-03T09:52:37;55972.34;;;-140.63;28.19
11302;BME280;5706;50.650;13.380;2022-08-03T09:58:45;55948.50;;;-140.63;28.74
11302;BME280;5706;50.650;13.380;2022-08-03T10:05:31;56059.81;;;-140.63;31.16
11302;BME280;5706;50.650;13.380;2022-08-03T10:08:14;56075.72;;;-140.63;32.44
11302;BME280;5706;50.650;13.380;2022-08-03T10:10:51;56032.00;;;-140.63;32.25
11302;BME280;5706;50.650;13.380;2022-08-03T10:13:21;56093.63;;;-140.63;31.44
11302;BME280;5706;50.650;13.380;2022-08-03T10:15:53;56030.00;;;-140.63;30.46
11302;BME280;5706;50.650;13.380;2022-08-03T10:18:22;56039.94;;;-140.63;31.67
11302;BME280;5706;50.650;13.380;2022-08-03T10:21:09;55998.19;;;-140.63;30.99
11302;BME280;5706;50.650;13.380;2022-08-03T10:24:51;56008.13;;;-140.63;30.33
11302;BME280;5706;50.650;13.380;2022-08-03T10:30:57;56032.00;;;-140.63;32.02
11302;BME280;5706;50.650;13.380;2022-08-03T10:34:27;55956.44;;;-140.63;30.23
11302;BME280;5706;50.650;13.380;2022-08-03T10:37:44;55964.41;;;-140.63;29.85
11302;BME280;5706;50.650;13.380;2022-08-03T10:41:31;55964.41;;;-140.63;29.10
11302;BME280;5706;50.650;13.380;2022-08-03T10:44:13;55946.50;;;-140.63;27.82
11302;BME280;5706;50.650;13.380;2022-08-03T10:46:48;55982.28;;;-140.63;28.45
11302;BME280;5706;50.650;13.380;2022-08-03T10:49:18;56016.09;;;-140.63;30.16
11302;BME280;5706;50.650;13.380;2022-08-03T10:52:16;56024.03;;;-140.63;32.04
11302;BME280;5706;50.650;13.380;2022-08-03T10:55:46;56020.06;;;-140.63;31.42
11302;BME280;5706;50.650;13.380;2022-08-03T10:58:51;56014.09;;;-140.63;32.11
11302;BME280;5706;50.650;13.380;2022-08-03T11:02:03;55976.31;;;-140.63;32.16
11302;BME280;5706;50.650;13.380;2022-08-03T11:04:50;55992.22;;;-140.63;32.00
11302;BME280;5706;50.650;13.380;2022-08-03T11:12:27;56006.16;;;-140.63;31.12
11302;BME280;5706;50.650;13.380;2022-08-03T11:15:05;56016.09;;;-140.63;31.01
11302;BME280;5706;50.650;13.380;2022-08-03T11:18:06;56035.97;;;-140.63;32.29
11302;BME280;5706;50.650;13.380;2022-08-03T11:20:49;55990.25;;;-140.63;33.09
11302;BME280;5706;50.650;13.380;2022-08-03T11:23:38;55968.38;;;-140.63;31.96
11302;BME280;5706;50.650;13.380;2022-08-03T11:26:11;55996.22;;;-140.63;31.03
11302;BME280;5706;50.650;13.380;2022-08-03T11:29:27;56006.16;;;-140.63;31.69
